Time;durP1;ratioP1;P1;durP2;ratioP2;P2;SDS_P1;SDS_P2;PMS_P1;PMS_P2;Temp;Humidity;BMP_temperature;BMP_pressure;BME280_temperature;BME280_humidity;BME280_pressure;Samples;Min_cycle;Max_cycle;Signal;HPM_P1;HPM_P2
2021/12/29 00:00:12;;;;;;;8.50;5.93;;;;;;;8.55;89.38;98149.28;4996968;28;20046;-75
2021/12/29 00:02:37;;;;;;;8.00;6.32;;;;;;;8.54;89.32;98157.25;4996728;28;20046;-76
2021/12/29 00:05:03;;;;;;;8.80;6.90;;;;;;;8.53;89.47;98164.28;4978842;28;20046;-75
2021/12/29 00:07:29;;;;;;;8.10;6.78;;;;;;;8.53;89.27;98177.41;4994496;28;20030;-76
2021/12/29 00:09:55;;;;;;;16.70;8.02;;;;;;;8.51;89.64;98173.22;4990363;28;20057;-75
2021/12/29 00:12:25;;;;;;;7.35;6.15;;;;;;;8.53;89.37;98181.84;4957338;28;20034;-75
2021/12/29 00:14:52;;;;;;;12.52;6.88;;;;;;;8.51;89.82;98184.56;4975207;28;20117;-76
2021/12/29 00:17:17;;;;;;;9.95;7.00;;;;;;;8.52;89.93;98190.66;4990616;28;20034;-75
2021/12/29 00:19:43;;;;;;;8.00;6.15;;;;;;;8.47;89.78;98187.50;4990566;28;20105;-75
2021/12/29 00:22:08;;;;;;;9.25;6.40;;;;;;;8.49;89.42;98196.09;4989648;28;20038;-76
2021/12/29 00:24:34;;;;;;;8.93;6.38;;;;;;;8.47;89.10;98187.50;4993355;28;20072;-74
2021/12/29 00:26:59;;;;;;;7.43;5.85;;;;;;;8.48;89.21;98186.56;4996722;28;20042;-75
2021/12/29 00:29:25;;;;;;;9.15;6.50;;;;;;;8.47;88.73;98177.00;4994702;28;20026;-74
2021/12/29 00:31:50;;;;;;;11.05;7.13;;;;;;;8.46;89.02;98188.44;4989536;28;20057;-75
2021/12/29 00:34:15;;;;;;;10.73;7.20;;;;;;;8.45;88.76;98199.91;4989711;28;20034;-73
2021/12/29 00:36:41;;;;;;;8.30;6.20;;;;;;;8.45;89.07;98200.72;4990036;28;20065;-75
2021/12/29 00:39:06;;;;;;;8.82;7.30;;;;;;;8.44;89.43;98222.69;4996005;28;20039;-75
2021/12/29 00:41:31;;;;;;;11.45;7.72;;;;;;;8.44;88.80;98237.59;4996659;28;20034;-74
2021/12/29 00:43:57;;;;;;;9.18;7.10;;;;;;;8.44;88.51;98245.47;4995693;28;20078;-76
2021/12/29 00:46:23;;;;;;;10.38;7.93;;;;;;;8.44;88.61;98248.09;4994444;28;20045;-75
2021/12/29 00:48:49;;;;;;;8.57;7.43;;;;;;;8.43;88.54;98260.38;4998030;28;20026;-76
2021/12/29 00:51:14;;;;;;;14.15;8.20;;;;;;;8.44;88.48;98259.47;5003478;28;20058;-74
2021/12/29 00:53:40;;;;;;;10.85;8.90;;;;;;;8.44;88.39;98266.47;5001960;28;20031;-74
2021/12/29 00:56:06;;;;;;;8.90;7.97;;;;;;;8.43;88.47;98267.44;4998176;28;20109;-74
2021/12/29 00:58:32;;;;;;;12.30;8.18;;;;;;;8.46;87.95;98272.47;4992901;28;20038;-75
2021/12/29 01:00:59;;;;;;;10.82;7.63;;;;;;;8.47;87.98;98276.81;4993096;28;20054;-75
2021/12/29 01:03:25;;;;;;;15.30;7.95;;;;;;;8.46;87.63;98280.34;4991857;28;20034;-76
2021/12/29 01:05:51;;;;;;;13.30;8.55;;;;;;;8.48;87.47;98270.59;4991250;28;20465;-75
2021/12/29 01:08:17;;;;;;;20.50;8.25;;;;;;;8.45;87.33;98286.56;4992214;28;20034;-75
2021/12/29 01:10:43;;;;;;;11.15;7.85;;;;;;;8.45;88.22;98292.66;4974585;28;20054;-73
2021/12/29 01:13:11;;;;;;;15.77;8.13;;;;;;;8.43;88.03;98293.69;4992538;28;20510;-75
2021/12/29 01:18:27;;;;;;;12.15;8.18;;;;;;;8.42;88.26;98310.38;4992544;28;20065;-74
2021/12/29 01:20:54;;;;;;;11.10;8.05;;;;;;;8.41;88.59;98309.53;4992198;28;20034;-75
2021/12/29 01:23:21;;;;;;;13.38;8.52;;;;;;;8.40;88.54;98322.78;4971559;28;20061;-75
2021/12/29 01:25:46;;;;;;;10.32;7.70;;;;;;;8.40;88.17;98322.78;4991678;28;20058;-74
2021/12/29 01:28:11;;;;;;;9.45;7.05;;;;;;;8.40;87.49;98320.16;4992014;28;20066;-74
2021/12/29 01:30:37;;;;;;;13.32;8.20;;;;;;;8.40;87.06;98320.16;4958024;28;20084;-74
2021/12/29 01:33:06;;;;;;;11.55;7.25;;;;;;;8.44;86.93;98342.63;4992577;28;20538;-76
2021/12/29 01:35:32;;;;;;;10.75;7.90;;;;;;;8.45;86.93;98336.47;4991911;28;20039;-74
2021/12/29 01:37:57;;;;;;;8.88;6.88;;;;;;;8.44;87.63;98340.88;4972872;28;20043;-75
2021/12/29 01:40:23;;;;;;;15.70;7.93;;;;;;;8.45;86.96;98358.31;4972609;28;20483;-74
2021/12/29 01:42:48;;;;;;;12.52;8.35;;;;;;;8.46;86.54;98364.38;4972590;28;20038;-73
2021/12/29 01:45:14;;;;;;;13.02;7.13;;;;;;;8.46;86.51;98370.47;4971672;28;20753;-75
2021/12/29 01:47:40;;;;;;;9.77;8.55;;;;;;;8.48;85.86;98379.09;4972069;28;20112;-75
2021/12/29 01:50:08;;;;;;;8.68;6.90;;;;;;;8.48;86.28;98375.66;4971231;28;20062;-76
2021/12/29 01:52:38;;;;;;;9.88;7.75;;;;;;;8.50;86.20;98394.78;4954447;28;20038;-75
2021/12/29 01:55:10;;;;;;;12.15;7.68;;;;;;;8.48;85.66;98394.03;4954085;28;20043;-75
2021/12/29 01:57:36;;;;;;;13.27;7.80;;;;;;;8.49;85.16;98395.72;4985377;28;20154;-74
2021/12/29 02:00:07;;;;;;;12.23;7.22;;;;;;;8.50;85.17;98400.03;4991510;28;20042;-74
2021/12/29 02:02:32;;;;;;;15.05;7.53;;;;;;;8.49;85.31;98408.84;4957318;28;20490;-73
2021/12/29 02:04:58;;;;;;;10.05;7.35;;;;;;;8.46;86.02;98403.78;4990964;28;20129;-74
2021/12/29 02:07:23;;;;;;;8.32;6.25;;;;;;;8.46;86.01;98401.16;4991804;28;20049;-74
2021/12/29 02:09:48;;;;;;;14.35;7.30;;;;;;;8.44;86.25;98408.28;4973633;28;20035;-76
2021/12/29 02:12:16;;;;;;;9.85;7.68;;;;;;;8.42;86.14;98415.41;4990931;28;20042;-76
2021/12/29 02:14:42;;;;;;;11.98;7.05;;;;;;;8.38;85.72;98415.56;4991104;28;20076;-76
2021/12/29 02:17:07;;;;;;;9.23;7.03;;;;;;;8.42;85.60;98425.91;4991192;28;20117;-76
2021/12/29 02:19:32;;;;;;;11.52;6.55;;;;;;;8.40;85.43;98414.69;4991842;28;20057;-75
2021/12/29 02:22:07;;;;;;;8.05;6.45;;;;;;;8.42;86.26;98426.78;4991884;28;20034;-75
2021/12/29 02:24:37;;;;;;;11.75;6.45;;;;;;;8.42;85.77;98428.53;4991375;28;20034;-75
2021/12/29 02:27:04;;;;;;;9.20;5.65;;;;;;;8.42;85.66;98416.28;4998382;28;20045;-74
2021/12/29 02:29:31;;;;;;;9.75;6.97;;;;;;;8.42;85.11;98418.03;5007703;28;20038;-75
2021/12/29 02:31:57;;;;;;;11.48;7.47;;;;;;;8.43;85.19;98420.56;5008418;28;20034;-75
2021/12/29 02:34:22;;;;;;;10.93;7.45;;;;;;;8.44;84.96;98424.03;5007499;28;20045;-75
2021/12/29 02:36:47;;;;;;;9.93;6.75;;;;;;;8.42;85.73;98423.28;5007231;28;20066;-73
2021/12/29 02:39:19;;;;;;;12.40;6.90;;;;;;;8.44;84.81;98437.16;4997291;28;20034;-74
2021/12/29 02:41:52;;;;;;;9.02;6.57;;;;;;;8.42;85.41;98437.28;4990728;28;20092;-74
2021/12/29 02:44:25;;;;;;;8.68;5.97;;;;;;;8.44;85.64;98431.91;4990718;28;20046;-74
2021/12/29 02:46:51;;;;;;;16.83;8.57;;;;;;;8.41;85.35;98440.00;5007889;28;20035;-73
2021/12/29 02:49:16;;;;;;;12.25;7.28;;;;;;;8.39;85.26;98426.91;5010425;28;20046;-73
2021/12/29 02:51:42;;;;;;;20.58;8.63;;;;;;;8.43;85.59;98422.38;5007948;28;20054;-74
2021/12/29 02:54:08;;;;;;;9.70;6.43;;;;;;;8.41;86.02;98425.06;5005371;28;20046;-74
2021/12/29 02:56:33;;;;;;;12.77;8.02;;;;;;;8.40;85.72;98425.19;5007629;28;20066;-74
2021/12/29 02:58:59;;;;;;;13.90;7.22;;;;;;;8.40;85.53;98439.16;5009596;28;20065;-74
2021/12/29 03:01:27;;;;;;;14.05;6.78;;;;;;;8.39;85.25;98450.56;5008364;28;20110;-75
2021/12/29 03:03:52;;;;;;;16.65;8.52;;;;;;;8.41;85.11;98455.75;5006126;28;20045;-74
2021/12/29 03:06:17;;;;;;;10.75;7.47;;;;;;;8.42;85.50;98462.69;5003805;28;20113;-72
2021/12/29 03:08:43;;;;;;;10.52;7.55;;;;;;;8.43;85.50;98467.00;4990834;28;20142;-74
2021/12/29 03:11:08;;;;;;;12.18;7.57;;;;;;;8.43;84.96;98472.25;4990076;28;20101;-75
2021/12/29 03:13:36;;;;;;;14.75;9.15;;;;;;;8.38;85.67;98478.59;4989600;28;20039;-74
2021/12/29 03:16:02;;;;;;;11.52;8.30;;;;;;;8.36;85.85;98466.50;4987310;28;20046;-74
2021/12/29 03:18:28;;;;;;;11.18;8.50;;;;;;;8.36;85.09;98483.09;4987249;28;20372;-76
2021/12/29 03:20:53;;;;;;;17.38;9.00;;;;;;;8.36;85.26;98483.09;4990793;28;20033;-76
2021/12/29 03:23:19;;;;;;;11.95;9.25;;;;;;;8.36;85.13;98488.34;4992770;28;20042;-75
2021/12/29 03:25:48;;;;;;;11.65;7.68;;;;;;;8.35;84.89;98481.41;4991018;28;20038;-75
2021/12/29 03:28:17;;;;;;;11.27;8.18;;;;;;;8.36;84.99;98471.75;4977179;28;20061;-75
2021/12/29 03:30:46;;;;;;;10.50;8.13;;;;;;;8.37;84.76;98473.47;4995055;28;20057;-75
2021/12/29 03:33:12;;;;;;;10.95;8.85;;;;;;;8.36;84.61;98479.63;4990420;28;20046;-77
2021/12/29 03:35:44;;;;;;;12.00;7.68;;;;;;;8.34;84.92;98471.88;4989010;28;20125;-76
2021/12/29 03:38:14;;;;;;;12.98;8.60;;;;;;;8.31;84.46;98476.44;4989715;28;20057;-76
2021/12/29 03:40:41;;;;;;;12.82;6.97;;;;;;;8.32;85.06;98492.13;4989701;28;20046;-75
2021/12/29 03:43:09;;;;;;;10.07;7.75;;;;;;;8.32;84.92;98486.03;4974511;28;20138;-75
2021/12/29 03:45:37;;;;;;;13.27;7.05;;;;;;;8.32;84.68;98489.50;4992213;28;20041;-74
2021/12/29 03:48:04;;;;;;;9.43;7.85;;;;;;;8.35;84.60;98502.44;4991725;28;20498;-76
2021/12/29 03:50:30;;;;;;;11.13;7.97;;;;;;;8.32;85.07;98499.16;4991902;28;20065;-76
2021/12/29 03:52:55;;;;;;;9.82;7.25;;;;;;;8.32;84.76;98502.63;4990842;28;20031;-75
2021/12/29 03:55:21;;;;;;;10.57;7.03;;;;;;;8.34;84.95;98506.00;4971050;28;20486;-76
2021/12/29 03:57:46;;;;;;;10.45;6.82;;;;;;;8.36;84.73;98508.53;4990996;28;20117;-76
2021/12/29 04:00:14;;;;;;;10.30;6.88;;;;;;;8.35;84.95;98507.69;4994931;28;20050;-75
2021/12/29 04:02:41;;;;;;;10.38;7.93;;;;;;;8.35;84.27;98512.94;4993296;28;20041;-75
2021/12/29 04:05:09;;;;;;;10.65;7.20;;;;;;;8.34;84.06;98524.38;4993148;28;20046;-76
2021/12/29 04:07:34;;;;;;;12.07;7.40;;;;;;;8.34;83.69;98520.88;4992174;28;20041;-75
2021/12/29 04:09:59;;;;;;;8.63;7.07;;;;;;;8.37;83.82;98539.13;5001350;28;20031;-75
2021/12/29 04:12:25;;;;;;;9.18;6.97;;;;;;;8.38;84.02;98536.38;5003006;28;20035;-74
2021/12/29 04:14:51;;;;;;;25.27;10.10;;;;;;;8.36;83.58;98542.66;4996621;28;20034;-75
2021/12/29 04:17:18;;;;;;;11.27;6.97;;;;;;;8.34;83.74;98540.13;4975282;28;20088;-75
2021/12/29 04:22:30;;;;;;;12.80;6.82;;;;;;;8.39;83.38;98560.84;4990002;28;20629;-75
2021/12/29 04:24:56;;;;;;;10.57;6.28;;;;;;;8.41;82.48;98558.16;4972055;28;20038;-75
2021/12/29 04:27:23;;;;;;;7.30;6.45;;;;;;;8.41;82.78;98556.38;4989164;28;20049;-75
2021/12/29 04:29:49;;;;;;;11.35;6.72;;;;;;;8.42;82.64;98558.09;4971726;28;20037;-75
2021/12/29 04:32:15;;;;;;;13.50;7.50;;;;;;;8.43;82.72;98559.75;4971137;28;20410;-74
2021/12/29 04:34:40;;;;;;;10.55;7.15;;;;;;;8.41;82.32;98558.16;4990232;28;20513;-74
2021/12/29 04:37:05;;;;;;;8.18;6.22;;;;;;;8.42;82.44;98555.47;4989318;28;20129;-75
2021/12/29 04:39:31;;;;;;;8.95;6.47;;;;;;;8.42;81.41;98558.09;4999667;28;20038;-74
2021/12/29 04:41:56;;;;;;;8.00;6.43;;;;;;;8.44;81.74;98566.72;5004356;28;20035;-77
2021/12/29 04:44:22;;;;;;;7.25;5.38;;;;;;;8.46;81.54;98569.25;4998313;28;20053;-74
2021/12/29 04:46:47;;;;;;;8.30;6.28;;;;;;;8.47;81.09;98565.69;4988515;28;20042;-76
2021/12/29 04:49:14;;;;;;;10.10;6.53;;;;;;;8.47;80.93;98571.78;4971378;28;20049;-76
2021/12/29 04:51:54;;;;;;;7.72;6.32;;;;;;;8.48;80.70;98572.63;4988341;28;20038;-75
2021/12/29 04:54:20;;;;;;;10.00;6.15;;;;;;;8.49;80.50;98576.94;4988458;28;20136;-74
2021/12/29 04:56:45;;;;;;;7.03;6.03;;;;;;;8.49;80.81;98582.19;4988364;28;20507;-74
2021/12/29 04:59:11;;;;;;;6.80;5.82;;;;;;;8.47;81.07;98579.66;4988707;28;20088;-76
2021/12/29 05:01:36;;;;;;;6.28;5.22;;;;;;;8.48;80.56;98577.88;4988444;28;20495;-76
2021/12/29 05:04:02;;;;;;;7.57;5.40;;;;;;;8.50;80.51;98581.25;4988557;28;20521;-75
2021/12/29 05:09:11;;;;;;;6.50;5.38;;;;;;;8.49;80.55;98587.44;4987957;28;20041;-76
2021/12/29 05:11:36;;;;;;;6.50;5.80;;;;;;;8.49;80.55;98590.06;4988372;28;20031;-75
2021/12/29 05:14:02;;;;;;;6.28;5.47;;;;;;;8.52;80.87;98595.16;4988625;28;20150;-76
2021/12/29 05:16:28;;;;;;;8.82;5.35;;;;;;;8.48;79.85;98601.53;4988087;28;20030;-76
2021/12/29 05:18:56;;;;;;;9.38;4.88;;;;;;;8.51;80.04;98598.69;4988205;28;20038;-76
2021/12/29 05:21:22;;;;;;;9.10;5.30;;;;;;;8.53;80.13;98589.78;4988608;28;20045;-75
2021/12/29 05:23:48;;;;;;;8.32;4.28;;;;;;;8.51;80.12;98589.03;4990460;28;20406;-76
2021/12/29 05:26:13;;;;;;;8.20;5.65;;;;;;;8.51;79.59;98590.81;4991329;28;20042;-75
2021/12/29 05:28:39;;;;;;;12.55;4.95;;;;;;;8.55;79.83;98600.22;4992027;28;20043;-74
2021/12/29 05:31:04;;;;;;;7.45;4.40;;;;;;;8.53;80.00;98607.34;4992359;28;20045;-76
2021/12/29 05:33:30;;;;;;;7.57;5.07;;;;;;;8.55;79.53;98600.22;4991480;28;20034;-75
2021/12/29 05:35:55;;;;;;;8.68;5.50;;;;;;;8.52;79.39;98593.38;4991443;28;20490;-76
2021/12/29 05:38:21;;;;;;;11.05;5.50;;;;;;;8.52;80.40;98608.28;4991724;28;20065;-76
2021/12/29 05:40:48;;;;;;;10.32;5.72;;;;;;;8.52;79.84;98605.66;4991002;28;20141;-76
2021/12/29 05:43:14;;;;;;;7.00;5.10;;;;;;;8.53;79.92;98615.22;4992078;28;20118;-74
2021/12/29 05:45:40;;;;;;;7.38;5.28;;;;;;;8.55;80.04;98621.22;4973442;28;20129;-76
2021/12/29 05:48:06;;;;;;;10.02;5.82;;;;;;;8.53;79.79;98629.19;4992091;28;20049;-76
2021/12/29 05:50:32;;;;;;;9.18;5.47;;;;;;;8.52;80.15;98634.56;4974233;28;20098;-76
2021/12/29 05:52:59;;;;;;;10.15;5.22;;;;;;;8.53;80.39;98637.06;4992288;28;20050;-76
2021/12/29 05:55:26;;;;;;;11.82;5.40;;;;;;;8.52;79.85;98638.03;4992799;28;20069;-76
2021/12/29 05:57:51;;;;;;;8.38;5.18;;;;;;;8.52;79.96;98634.56;4993112;28;20517;-76
2021/12/29 06:00:19;;;;;;;11.75;5.90;;;;;;;8.53;80.05;98639.69;4992412;28;20045;-75
2021/12/29 06:02:45;;;;;;;17.35;6.25;;;;;;;8.52;80.74;98631.94;4977191;28;20114;-75
2021/12/29 06:05:10;;;;;;;10.90;5.95;;;;;;;8.53;80.39;98636.22;4992984;28;20134;-75
2021/12/29 06:07:37;;;;;;;9.57;5.90;;;;;;;8.52;80.89;98638.03;4999282;28;20038;-76
2021/12/29 06:10:03;;;;;;;14.40;6.82;;;;;;;8.52;81.03;98640.66;4995422;28;20057;-75
2021/12/29 06:12:29;;;;;;;11.18;5.60;;;;;;;8.53;80.37;98637.06;4991051;28;20125;-75
2021/12/29 06:14:55;;;;;;;7.20;5.28;;;;;;;8.52;81.03;98631.94;4990594;28;20113;-76
2021/12/29 06:17:20;;;;;;;10.25;5.95;;;;;;;8.51;79.99;98646.81;4990556;28;20045;-75
2021/12/29 06:19:46;;;;;;;9.25;6.63;;;;;;;8.49;80.47;98650.47;4990958;28;20553;-76
2021/12/29 06:22:11;;;;;;;10.82;4.68;;;;;;;8.50;80.78;98645.13;4991483;28;20502;-75
2021/12/29 06:24:41;;;;;;;8.57;5.57;;;;;;;8.52;80.42;98647.69;4991045;28;20069;-75
2021/12/29 06:27:07;;;;;;;9.40;6.13;;;;;;;8.50;80.72;98646.94;4991102;28;20045;-76
2021/12/29 06:29:32;;;;;;;11.85;6.10;;;;;;;8.51;80.09;98640.72;4991128;28;20402;-76
2021/12/29 06:31:58;;;;;;;9.07;5.35;;;;;;;8.52;80.14;98642.44;4990292;28;20116;-76
2021/12/29 06:34:23;;;;;;;9.05;5.65;;;;;;;8.51;80.14;98648.59;4973170;28;20106;-75
2021/12/29 06:36:49;;;;;;;8.10;5.40;;;;;;;8.53;79.77;98654.63;4990747;28;20545;-76
2021/12/29 06:39:14;;;;;;;10.88;4.97;;;;;;;8.52;79.60;98663.44;4991202;28;20034;-76
2021/12/29 06:41:40;;;;;;;12.07;6.15;;;;;;;8.52;79.40;98655.56;4991657;28;20042;-74
2021/12/29 06:44:06;;;;;;;7.50;5.43;;;;;;;8.51;78.86;98653.84;4991510;28;20101;-76
2021/12/29 06:46:32;;;;;;;10.98;6.60;;;;;;;8.52;79.01;98659.03;4972453;28;20490;-76
2021/12/29 06:48:57;;;;;;;9.82;5.97;;;;;;;8.52;79.13;98663.44;4991227;28;20100;-76
2021/12/29 06:51:22;;;;;;;7.10;4.72;;;;;;;8.51;78.38;98659.94;4990786;28;20467;-75
2021/12/29 06:53:48;;;;;;;10.52;5.82;;;;;;;8.54;79.39;98672.06;4990634;28;20554;-75
2021/12/29 06:56:13;;;;;;;8.95;6.13;;;;;;;8.54;79.16;98672.06;4989436;28;20130;-75
2021/12/29 06:58:39;;;;;;;12.85;6.40;;;;;;;8.54;79.34;98677.31;4976521;28;20053;-74
2021/12/29 07:01:05;;;;;;;10.05;5.35;;;;;;;8.53;79.21;98684.34;4993071;28;20034;-74
2021/12/29 07:03:30;;;;;;;8.00;5.25;;;;;;;8.54;78.99;98687.81;4992872;28;20046;-76
2021/12/29 07:05:56;;;;;;;7.75;5.20;;;;;;;8.53;78.62;98696.66;4991281;28;20447;-76
2021/12/29 07:08:22;;;;;;;10.23;6.32;;;;;;;8.52;78.92;98695.81;4976688;28;20054;-75
2021/12/29 07:10:47;;;;;;;11.35;6.38;;;;;;;8.52;78.34;98705.47;4993316;28;20061;-75
2021/12/29 07:13:13;;;;;;;12.90;4.97;;;;;;;8.54;78.92;98706.22;4990080;28;20482;-75
2021/12/29 07:15:38;;;;;;;12.55;6.35;;;;;;;8.52;78.94;98706.31;4952670;28;20054;-75
2021/12/29 07:18:04;;;;;;;13.88;5.53;;;;;;;8.53;78.31;98694.03;4970711;28;20185;-76
2021/12/29 07:20:30;;;;;;;9.93;5.30;;;;;;;8.56;78.31;98688.59;4979104;28;20038;-76
2021/12/29 07:22:56;;;;;;;12.20;4.97;;;;;;;8.54;78.47;98691.31;4972365;28;20039;-76
2021/12/29 07:25:22;;;;;;;8.45;5.30;;;;;;;8.55;78.88;98694.78;4980241;28;20034;-76
2021/12/29 07:27:48;;;;;;;12.65;5.93;;;;;;;8.53;79.08;98696.66;4987359;28;20395;-76
2021/12/29 07:30:13;;;;;;;12.55;5.93;;;;;;;8.53;79.15;98701.91;4971987;28;20038;-76
2021/12/29 07:32:41;;;;;;;9.57;5.68;;;;;;;8.53;79.48;98708.00;4990107;28;20038;-76
2021/12/29 07:35:07;;;;;;;8.63;5.63;;;;;;;8.54;79.78;98708.84;4972426;28;20074;-76
2021/12/29 07:37:32;;;;;;;13.77;6.60;;;;;;;8.51;80.06;98703.78;4990122;28;20058;-76
2021/12/29 07:39:58;;;;;;;13.00;5.45;;;;;;;8.54;80.20;98714.97;4990162;28;20046;-76
2021/12/29 07:42:23;;;;;;;11.80;7.07;;;;;;;8.52;81.07;98718.63;4989948;28;20454;-75
2021/12/29 07:44:50;;;;;;;12.65;6.25;;;;;;;8.53;80.39;98720.28;4989402;28;20045;-76
2021/12/29 07:47:16;;;;;;;12.23;6.68;;;;;;;8.54;80.66;98714.97;4988472;28;20042;-76
2021/12/29 07:49:41;;;;;;;13.40;8.48;;;;;;;8.54;80.84;98719.34;4989589;28;20041;-76
2021/12/29 07:52:07;;;;;;;19.52;7.10;;;;;;;8.54;81.04;98721.97;4989923;28;20482;-75
2021/12/29 07:54:32;;;;;;;9.40;7.40;;;;;;;8.57;81.24;98720.03;4989687;28;20031;-77
2021/12/29 07:56:58;;;;;;;8.32;6.30;;;;;;;8.57;81.21;98720.03;4990560;28;20042;-75
2021/12/29 07:59:23;;;;;;;14.10;8.38;;;;;;;8.56;80.75;98726.19;4990446;28;20123;-75
2021/12/29 08:01:49;;;;;;;16.00;6.85;;;;;;;8.60;80.86;98729.50;4998848;28;20050;-75
2021/12/29 08:04:16;;;;;;;12.48;7.50;;;;;;;8.60;81.25;98732.97;5007389;28;20034;-76
2021/12/29 08:06:42;;;;;;;13.30;7.95;;;;;;;8.62;81.12;98742.56;4997521;28;20409;-75
2021/12/29 08:09:09;;;;;;;9.85;7.25;;;;;;;8.64;80.87;98744.16;4990460;28;20534;-76
2021/12/29 08:11:35;;;;;;;13.55;7.32;;;;;;;8.64;80.53;98745.94;4990109;28;20120;-76
2021/12/29 08:14:01;;;;;;;18.35;8.00;;;;;;;8.64;80.89;98745.94;4989416;28;20042;-76
2021/12/29 08:16:26;;;;;;;11.95;7.82;;;;;;;8.65;80.67;98752.91;4989289;28;20034;-76
2021/12/29 08:18:51;;;;;;;11.35;7.05;;;;;;;8.66;80.85;98755.41;4989863;28;20034;-76
2021/12/29 08:21:17;;;;;;;13.85;9.18;;;;;;;8.65;81.18;98745.84;4972349;28;20117;-75
2021/12/29 08:23:42;;;;;;;13.55;9.02;;;;;;;8.65;80.98;98737.97;4990231;28;20030;-75
2021/12/29 08:26:08;;;;;;;17.33;8.15;;;;;;;8.63;80.98;98741.63;4990449;28;20053;-76
2021/12/29 08:28:33;;;;;;;17.50;7.85;;;;;;;8.64;81.13;98745.94;5001427;28;20037;-74
2021/12/29 08:30:59;;;;;;;13.68;8.20;;;;;;;8.60;81.15;98734.75;5003277;28;20045;-76
2021/12/29 08:33:24;;;;;;;12.38;7.25;;;;;;;8.64;80.90;98738.91;5001205;28;20121;-76
2021/12/29 08:35:50;;;;;;;15.90;10.68;;;;;;;8.64;80.95;98746.78;4988480;28;20038;-75
2021/12/29 08:38:16;;;;;;;15.30;9.18;;;;;;;8.65;80.92;98755.50;4989177;28;20030;-76
2021/12/29 08:40:42;;;;;;;14.88;7.68;;;;;;;8.66;81.02;98746.69;4989388;28;20051;-77
2021/12/29 08:43:07;;;;;;;13.13;6.75;;;;;;;8.66;80.88;98750.16;4989116;28;20030;-77
2021/12/29 08:45:34;;;;;;;8.20;6.15;;;;;;;8.63;81.43;98760.84;4970906;28;20053;-76
2021/12/29 08:48:00;;;;;;;16.85;7.85;;;;;;;8.60;80.91;98751.38;4988891;28;20034;-77
2021/12/29 08:50:32;;;;;;;11.40;7.32;;;;;;;8.65;81.21;98766.03;4971246;28;20046;-76
2021/12/29 08:52:59;;;;;;;10.35;6.55;;;;;;;8.66;81.63;98770.34;4988449;28;20045;-76
2021/12/29 08:55:24;;;;;;;15.13;7.30;;;;;;;8.66;81.52;98765.09;4988130;28;20503;-76
2021/12/29 08:57:49;;;;;;;9.25;5.93;;;;;;;8.65;81.40;98764.25;4989074;28;20100;-77
2021/12/29 09:00:17;;;;;;;13.48;6.43;;;;;;;8.66;80.75;98765.09;4974867;28;20496;-75
2021/12/29 09:02:43;;;;;;;11.55;5.70;;;;;;;8.65;81.08;98761.63;4993039;28;20716;-75
2021/12/29 09:05:10;;;;;;;10.43;6.38;;;;;;;8.64;80.75;98757.31;4992015;28;20046;-76
2021/12/29 09:07:36;;;;;;;10.07;6.68;;;;;;;8.65;80.98;98766.03;4992635;28;20108;-74
2021/12/29 09:10:04;;;;;;;13.23;7.20;;;;;;;8.63;80.63;98765.25;4992627;28;20074;-75
2021/12/29 09:12:29;;;;;;;8.98;6.15;;;;;;;8.57;80.79;98758.59;4991958;28;20406;-75
2021/12/29 09:14:55;;;;;;;8.68;6.55;;;;;;;8.64;81.19;98762.56;4992328;28;20030;-74
2021/12/29 09:17:20;;;;;;;9.18;4.57;;;;;;;8.64;80.19;98757.31;4992698;28;20038;-75
2021/12/29 09:19:46;;;;;;;8.32;4.60;;;;;;;8.64;80.13;98756.44;4975516;28;20035;-74
2021/12/29 09:22:12;;;;;;;10.95;4.35;;;;;;;8.57;80.56;98746.28;4993763;28;20046;-76
2021/12/29 09:24:39;;;;;;;8.07;4.53;;;;;;;8.58;79.95;98744.50;4992924;28;20061;-75
2021/12/29 09:27:05;;;;;;;10.38;3.90;;;;;;;8.63;80.47;98744.25;4992700;28;20042;-76
2021/12/29 09:29:33;;;;;;;12.68;4.40;;;;;;;8.63;80.41;98739.84;4975803;28;20042;-76
2021/12/29 09:31:59;;;;;;;9.77;4.65;;;;;;;8.65;80.94;98750.25;4989308;28;20498;-75
2021/12/29 09:34:25;;;;;;;7.75;5.05;;;;;;;8.65;79.88;98742.38;4991666;28;20045;-76
2021/12/29 09:36:50;;;;;;;13.88;5.45;;;;;;;8.67;80.44;98746.63;4992199;28;20539;-75
2021/12/29 09:39:15;;;;;;;11.27;4.47;;;;;;;8.67;79.78;98751.03;4992086;28;20030;-73
2021/12/29 09:41:41;;;;;;;10.77;4.50;;;;;;;8.63;80.31;98755.59;4992451;28;20613;-76
2021/12/29 09:44:09;;;;;;;10.55;4.90;;;;;;;8.62;80.60;98756.53;4974554;28;20042;-76
2021/12/29 09:46:36;;;;;;;11.48;4.38;;;;;;;8.71;80.60;98758.66;4992088;28;20030;-75
2021/12/29 09:49:01;;;;;;;7.47;4.13;;;;;;;8.75;80.17;98761.94;4991714;28;20042;-75
2021/12/29 09:51:28;;;;;;;7.88;4.40;;;;;;;8.78;80.16;98765.22;4992215;28;20516;-75
2021/12/29 09:53:54;;;;;;;11.25;3.95;;;;;;;8.81;79.59;98764.19;4992221;28;20045;-76
2021/12/29 09:56:19;;;;;;;5.72;2.97;;;;;;;8.85;79.54;98759.59;4991096;28;20038;-76
2021/12/29 09:58:44;;;;;;;9.52;3.17;;;;;;;8.80;79.22;98754.63;4992171;28;20030;-75
2021/12/29 10:01:10;;;;;;;9.38;3.65;;;;;;;8.83;79.43;98743.91;4992106;28;20042;-77
2021/12/29 10:03:37;;;;;;;8.07;3.30;;;;;;;8.88;79.07;98755.00;4991215;28;20101;-76
2021/12/29 10:06:07;;;;;;;5.40;3.05;;;;;;;8.89;78.79;98748.00;4991004;28;20038;-75
2021/12/29 10:08:39;;;;;;;11.38;4.65;;;;;;;8.87;78.64;98742.81;4991425;28;20124;-76
2021/12/29 10:11:09;;;;;;;14.88;3.13;;;;;;;8.91;78.85;98743.47;4990664;28;20030;-76
2021/12/29 10:13:37;;;;;;;8.18;3.13;;;;;;;9.02;79.23;98741.91;4991734;28;20037;-75
2021/12/29 10:16:17;;;;;;;7.95;2.95;;;;;;;9.14;77.64;98729.81;4990813;28;20046;-76
2021/12/29 10:18:44;;;;;;;7.32;2.53;;;;;;;9.18;77.56;98738.34;4991359;28;20038;-76
2021/12/29 10:21:13;;;;;;;7.18;2.53;;;;;;;9.17;77.55;98740.13;4994848;28;20038;-76
2021/12/29 10:23:43;;;;;;;5.60;2.60;;;;;;;9.24;77.35;98735.34;4994487;28;20089;-76
2021/12/29 10:26:11;;;;;;;9.40;2.78;;;;;;;9.33;77.12;98726.03;4975884;28;20058;-76
2021/12/29 10:28:40;;;;;;;7.90;2.53;;;;;;;9.36;76.34;98718.00;4994771;28;20060;-76
2021/12/29 10:31:13;;;;;;;8.00;3.28;;;;;;;9.35;76.71;98713.66;4991920;28;20030;-76
2021/12/29 10:33:49;;;;;;;5.22;2.80;;;;;;;9.24;76.60;98702.00;4991737;28;20503;-76
2021/12/29 10:36:22;;;;;;;;;;;;;;;9.22;77.20;98684.63;4990548;28;20510;-76
2021/12/29 10:39:10;;;;;;;9.07;3.80;;;;;;;9.14;76.82;98681.63;4990955;28;20388;-74
2021/12/29 10:41:44;;;;;;;7.25;2.67;;;;;;;9.18;76.78;98688.38;4990058;28;20510;-75
2021/12/29 10:44:09;;;;;;;7.88;2.72;;;;;;;9.18;76.24;98701.53;4991135;28;20122;-73
2021/12/29 10:46:35;;;;;;;6.00;2.45;;;;;;;9.17;76.55;98700.69;4972785;28;20078;-76
2021/12/29 10:49:07;;;;;;;6.97;2.97;;;;;;;9.26;76.46;98699.28;4990622;28;20121;-75
2021/12/29 10:51:43;;;;;;;4.22;2.28;;;;;;;9.34;76.01;98697.03;4990675;28;20038;-76
2021/12/29 10:54:20;;;;;;;9.13;3.70;;;;;;;9.43;76.03;98708.78;4990791;28;20121;-75
2021/12/29 10:56:57;;;;;;;5.55;3.10;;;;;;;9.51;75.49;98705.66;4990244;28;20045;-75
2021/12/29 10:59:28;;;;;;;7.00;2.70;;;;;;;9.52;75.70;98695.03;4990448;28;20030;-76
2021/12/29 11:01:54;;;;;;;4.70;2.03;;;;;;;9.54;75.70;98700.22;4990463;28;20042;-75
2021/12/29 11:04:21;;;;;;;4.95;2.72;;;;;;;9.58;75.15;98699.09;4972617;28;20068;-76
2021/12/29 11:06:49;;;;;;;8.02;2.67;;;;;;;9.60;74.59;98711.22;4971871;28;20092;-76
2021/12/29 11:09:29;;;;;;;4.65;1.80;;;;;;;9.63;75.00;98712.81;4987402;28;20092;-75
2021/12/29 11:11:55;;;;;;;6.82;2.47;;;;;;;9.66;75.32;98705.53;4970229;28;20038;-75
2021/12/29 11:14:31;;;;;;;6.30;1.98;;;;;;;9.68;74.78;98700.19;4987727;28;20088;-75
2021/12/29 11:17:08;;;;;;;6.05;2.83;;;;;;;9.75;75.64;98708.56;4987639;28;20030;-75
2021/12/29 11:19:37;;;;;;;6.32;2.35;;;;;;;9.77;75.00;98723.31;4989166;28;20191;-76
2021/12/29 11:22:14;;;;;;;7.28;2.35;;;;;;;9.75;74.92;98713.81;4988342;28;20505;-75
2021/12/29 11:24:42;;;;;;;8.10;3.90;;;;;;;9.69;75.04;98709.75;4989321;28;20081;-77
2021/12/29 11:27:16;;;;;;;6.88;3.25;;;;;;;9.68;75.40;98703.66;4989052;28;20081;-74
2021/12/29 11:29:53;;;;;;;7.18;3.42;;;;;;;9.72;75.97;98685.03;4988897;28;20038;-74
2021/12/29 11:32:21;;;;;;;7.28;3.25;;;;;;;9.70;76.08;98686.91;4988658;28;20038;-74
2021/12/29 11:35:00;;;;;;;6.18;3.33;;;;;;;9.71;76.86;98683.38;4985958;28;20035;-76
2021/12/29 11:37:25;;;;;;;8.50;3.83;;;;;;;9.71;76.90;98675.47;4988228;28;20123;-75
2021/12/29 11:39:51;;;;;;;6.38;2.95;;;;;;;9.77;76.95;98685.59;4971065;28;20125;-76
2021/12/29 11:42:17;;;;;;;6.18;3.30;;;;;;;9.81;76.88;98681.84;4989330;28;20085;-74